createdAt,value
2023-02-12T00:09:25.893Z,93.17
2023-02-12T00:26:19.376Z,93.02
2023-02-12T00:33:59.409Z,92.71
2023-02-12T05:41:23.499Z,90.65
2023-02-12T05:44:17.875Z,90.70
2023-02-12T05:46:44.692Z,90.51
2023-02-12T05:49:29.476Z,90.57
2023-02-12T05:52:04.745Z,90.45
2023-02-12T05:54:31.397Z,90.64
2023-02-12T05:56:58.032Z,90.71
2023-02-12T05:59:25.204Z,90.64
2023-02-12T06:01:52.784Z,90.67
2023-02-12T06:07:19.173Z,90.31
2023-02-12T06:09:46.988Z,90.45
2023-02-12T06:12:14.241Z,90.48
2023-02-12T06:14:42.488Z,90.50
2023-02-12T06:17:09.537Z,90.42
2023-02-12T06:19:37.290Z,90.67
2023-02-12T06:22:04.999Z,90.24
2023-02-12T06:24:33.012Z,90.36
2023-02-12T06:26:59.732Z,90.36
2023-02-12T06:29:26.727Z,90.59
2023-02-12T06:31:53.583Z,90.52
2023-02-12T06:34:20.354Z,90.48
2023-02-12T06:36:48.050Z,90.45
2023-02-12T06:39:16.620Z,90.43
2023-02-12T06:41:44.137Z,90.45
2023-02-12T06:44:11.951Z,90.62
2023-02-12T06:46:39.224Z,90.55
2023-02-12T06:49:05.977Z,90.60
2023-02-12T06:51:32.704Z,90.52
2023-02-12T06:53:59.476Z,90.45
2023-02-12T06:56:26.848Z,90.51
2023-02-12T06:58:56.392Z,90.34
2023-02-12T07:01:26.954Z,90.38
2023-02-12T07:03:56.513Z,90.66
2023-02-12T07:06:24.070Z,90.53
2023-02-12T07:08:51.240Z,90.49
2023-02-12T07:11:18.650Z,90.74
2023-02-12T07:13:45.810Z,90.69
2023-02-12T07:16:15.779Z,90.77
2023-02-12T07:18:43.630Z,90.77
2023-02-12T07:21:12.190Z,90.71
2023-02-12T07:23:40.579Z,90.88
2023-02-12T07:26:13.028Z,90.65
2023-02-12T07:28:40.478Z,90.80
2023-02-12T07:31:09.661Z,90.49
2023-02-12T07:33:37.074Z,90.44
2023-02-12T07:36:06.205Z,90.84
2023-02-12T07:38:36.180Z,90.62
2023-02-12T07:41:16.074Z,90.56
2023-02-12T07:43:44.321Z,90.63
2023-02-12T07:46:17.303Z,90.63
2023-02-12T07:48:45.121Z,90.62
2023-02-12T07:51:14.822Z,90.46
2023-02-12T07:53:42.019Z,90.36
2023-02-12T07:56:14.164Z,90.36
2023-02-12T07:58:42.741Z,90.18
2023-02-12T08:01:29.719Z,90.08
2023-02-12T08:04:02.186Z,90.18
2023-02-12T08:06:31.539Z,89.90
2023-02-12T08:09:00.396Z,90.09
2023-02-12T08:11:28.580Z,89.64
2023-02-12T08:13:55.765Z,89.77
2023-02-12T08:16:24.427Z,89.32
2023-02-12T08:18:51.829Z,89.51
2023-02-12T08:21:26.582Z,89.77
2023-02-12T08:23:59.528Z,89.72
2023-02-12T08:26:29.153Z,89.51
2023-02-12T08:29:04.221Z,89.32
2023-02-12T08:31:36.139Z,89.38
2023-02-12T08:34:03.259Z,89.49
2023-02-12T08:36:40.288Z,89.28
2023-02-12T08:39:08.328Z,89.20
2023-02-12T08:41:35.392Z,89.10
2023-02-12T08:44:03.792Z,89.18
2023-02-12T08:46:33.941Z,88.91
2023-02-12T08:49:03.195Z,89.08
2023-02-12T08:51:32.919Z,89.16
2023-02-12T08:54:01.938Z,88.90
2023-02-12T08:56:30.311Z,88.89
2023-02-12T08:59:01.329Z,88.68
2023-02-12T09:01:30.228Z,88.67
2023-02-12T09:03:57.184Z,88.39
2023-02-12T09:06:25.578Z,88.58
2023-02-12T09:08:53.560Z,88.41
2023-02-12T09:11:32.798Z,88.45
2023-02-12T09:14:01.612Z,88.36
2023-02-12T09:16:29.784Z,88.26
2023-02-12T09:18:57.113Z,88.22
2023-02-12T09:21:24.266Z,87.86
2023-02-12T09:23:52.370Z,87.97
2023-02-12T09:26:21.826Z,87.95
2023-02-12T09:28:50.195Z,87.97
2023-02-12T09:31:23.321Z,87.54
2023-02-12T09:33:53.374Z,87.59
2023-02-12T09:36:21.694Z,87.53
2023-02-12T09:38:49.427Z,87.90
2023-02-12T09:41:24.471Z,87.69
2023-02-12T09:44:03.501Z,87.40
2023-02-12T09:46:33.553Z,87.55
2023-02-12T09:49:15.406Z,87.57
2023-02-12T09:51:44.341Z,87.60
2023-02-12T09:54:14.750Z,87.70
2023-02-12T09:56:45.122Z,87.67
2023-02-12T09:59:13.450Z,87.64
2023-02-12T10:01:40.211Z,87.25
2023-02-12T10:04:07.246Z,87.73
2023-02-12T10:06:42.101Z,87.46
2023-02-12T10:09:45.438Z,87.58
2023-02-12T10:12:36.573Z,87.51
2023-02-12T10:15:32.646Z,87.62
2023-02-12T10:18:22.235Z,87.57
2023-02-12T10:21:10.744Z,87.66
2023-02-12T10:23:57.143Z,87.50
2023-02-12T10:26:32.160Z,87.78
2023-02-12T10:29:05.850Z,88.05
2023-02-12T10:31:36.349Z,87.82
2023-02-12T10:34:16.408Z,87.95
2023-02-12T10:36:45.061Z,88.17
2023-02-12T10:39:14.873Z,88.30
2023-02-12T10:41:47.957Z,88.29
2023-02-12T10:44:14.762Z,88.85
2023-02-12T10:46:41.626Z,88.43
2023-02-12T10:49:12.439Z,88.60
2023-02-12T10:51:41.674Z,88.81
2023-02-12T10:54:44.003Z,88.85
2023-02-12T10:57:14.572Z,88.84
2023-02-12T10:59:43.595Z,89.30
2023-02-12T11:02:31.459Z,89.32
2023-02-12T11:04:59.884Z,89.00
2023-02-12T11:07:27.910Z,89.27
2023-02-12T11:09:56.305Z,89.22
2023-02-12T11:12:38.671Z,89.14
2023-02-12T11:15:15.714Z,89.46
2023-02-12T11:17:44.943Z,89.55
2023-02-12T11:20:17.860Z,89.52
2023-02-12T11:23:00.013Z,89.38
2023-02-12T11:25:35.224Z,89.63
2023-02-12T11:28:17.948Z,89.63
2023-02-12T11:31:01.518Z,89.70
2023-02-12T11:33:34.886Z,89.64
2023-02-12T11:36:19.791Z,90.02
2023-02-12T11:38:52.514Z,89.84
2023-02-12T11:41:28.435Z,90.22
2023-02-12T11:43:55.206Z,90.09
2023-02-12T11:46:24.722Z,90.40
2023-02-12T11:48:53.139Z,90.41
2023-02-12T11:51:22.354Z,90.17
2023-02-12T11:53:51.613Z,90.27
2023-02-12T11:56:18.679Z,90.16
2023-02-12T11:58:47.564Z,90.43
2023-02-12T12:01:22.562Z,90.22
2023-02-12T12:04:06.694Z,90.10
2023-02-12T12:06:41.236Z,89.93
2023-02-12T12:09:25.213Z,89.87
2023-02-12T12:11:59.408Z,89.75
2023-02-12T12:14:59.783Z,89.46
2023-02-12T12:17:55.423Z,89.71
2023-02-12T12:20:25.423Z,89.57
2023-02-12T12:23:32.467Z,89.25
2023-02-12T12:26:21.380Z,89.14
2023-02-12T12:28:52.667Z,89.23
2023-02-12T12:31:27.784Z,88.77
2023-02-12T12:34:36.125Z,88.82
2023-02-12T12:37:02.889Z,88.45
2023-02-12T12:39:55.685Z,88.22
2023-02-12T12:42:36.246Z,88.12
2023-02-12T12:45:31.026Z,88.17
2023-02-12T12:48:22.840Z,87.51
2023-02-12T12:50:59.018Z,87.82
2023-02-12T12:53:41.042Z,87.39
2023-02-12T12:56:07.995Z,87.16
2023-02-12T12:58:40.606Z,87.03
2023-02-12T13:01:25.047Z,86.47
2023-02-12T13:04:19.589Z,86.27
2023-02-12T13:06:53.676Z,85.74
2023-02-12T13:09:30.089Z,85.58
2023-02-12T13:12:20.003Z,85.13
2023-02-12T13:14:58.863Z,84.80
2023-02-12T13:17:41.523Z,84.94
2023-02-12T13:20:26.866Z,84.62
2023-02-12T13:22:57.138Z,84.11
2023-02-12T13:25:35.878Z,83.90
2023-02-12T13:28:03.569Z,83.71
2023-02-12T13:30:34.266Z,83.54
2023-02-12T13:33:27.705Z,83.04
2023-02-12T13:36:01.081Z,82.86
2023-02-12T13:38:35.159Z,82.68
2023-02-12T13:41:06.171Z,82.59
2023-02-12T13:43:51.928Z,82.13
2023-02-12T13:46:41.322Z,81.65
2023-02-12T13:49:39.152Z,81.42
2023-02-12T13:52:11.338Z,81.22
2023-02-12T13:54:44.198Z,81.25
2023-02-12T13:57:16.844Z,81.04
2023-02-12T13:59:49.266Z,80.60
2023-02-12T14:02:27.695Z,80.83
2023-02-12T14:05:01.078Z,80.82
2023-02-12T14:07:45.973Z,81.24
2023-02-12T14:10:34.725Z,81.42
2023-02-12T14:13:22.549Z,81.43
2023-02-12T14:15:52.188Z,81.59
2023-02-12T14:18:32.760Z,81.53
2023-02-12T14:21:11.608Z,81.30
2023-02-12T14:23:39.946Z,81.70
2023-02-12T14:26:11.113Z,81.42
2023-02-12T14:29:04.968Z,82.04
2023-02-12T14:31:33.329Z,81.83
2023-02-12T14:34:06.397Z,81.83
2023-02-12T14:36:33.164Z,82.17
2023-02-12T14:39:03.922Z,82.15
2023-02-12T14:41:41.789Z,82.03
2023-02-12T14:44:17.759Z,81.80
2023-02-12T14:46:47.058Z,82.07
2023-02-12T14:49:21.930Z,81.97
2023-02-12T14:52:06.738Z,81.96
2023-02-12T14:54:51.514Z,81.67
2023-02-12T14:57:34.031Z,81.99
2023-02-12T15:00:16.717Z,82.16
2023-02-12T15:03:12.770Z,81.88
2023-02-12T15:05:56.640Z,81.99
2023-02-12T15:08:36.320Z,82.34
2023-02-12T15:11:28.222Z,82.26
2023-02-12T15:13:59.270Z,82.12
2023-02-12T15:16:49.924Z,82.37
2023-02-12T15:19:39.315Z,82.27
2023-02-12T15:22:36.703Z,82.20
2023-02-12T15:25:26.436Z,82.29
2023-02-12T15:28:22.259Z,82.19
2023-02-12T15:30:49.239Z,82.34
2023-02-12T15:33:28.423Z,82.54
2023-02-12T15:35:55.998Z,82.50
2023-02-12T15:38:33.806Z,82.48
2023-02-12T15:41:01.809Z,82.48
2023-02-12T15:43:31.999Z,82.69
2023-02-12T15:45:59.030Z,82.93
2023-02-12T15:48:31.728Z,82.48
2023-02-12T15:51:01.417Z,82.48
2023-02-12T15:53:32.225Z,82.65
2023-02-12T15:55:59.526Z,82.84
2023-02-12T15:58:29.631Z,82.82
2023-02-12T16:01:02.195Z,82.64
2023-02-12T16:03:34.815Z,82.56
2023-02-12T16:06:16.929Z,82.50
2023-02-12T16:09:08.524Z,82.74
2023-02-12T16:11:37.040Z,82.76
2023-02-12T16:14:40.991Z,82.41
2023-02-12T16:17:28.776Z,82.28
2023-02-12T16:20:00.702Z,82.51
2023-02-12T16:22:37.964Z,82.56
2023-02-12T16:25:15.530Z,82.39
2023-02-12T16:27:51.638Z,82.25
2023-02-12T16:30:34.387Z,82.24
2023-02-12T16:33:02.046Z,82.47
2023-02-12T16:35:34.278Z,82.47
2023-02-12T16:38:29.087Z,82.57
2023-02-12T16:41:20.072Z,82.74
2023-02-12T16:43:48.581Z,82.86
2023-02-12T16:46:17.926Z,82.64
2023-02-12T16:48:52.383Z,82.98
2023-02-12T16:51:30.943Z,82.85
2023-02-12T16:54:00.373Z,82.95
2023-02-12T16:56:39.065Z,82.85
2023-02-12T16:59:05.870Z,83.01
2023-02-12T17:01:35.937Z,83.25
2023-02-12T17:04:06.908Z,82.95
2023-02-12T17:06:33.842Z,83.20
2023-02-12T17:09:00.979Z,83.18
2023-02-12T17:11:29.151Z,83.16
2023-02-12T17:13:56.834Z,83.42
2023-02-12T17:16:32.182Z,83.24
2023-02-12T17:19:00.372Z,83.38
2023-02-12T17:21:38.455Z,83.74
2023-02-12T17:24:20.111Z,83.54
2023-02-12T17:26:47.076Z,83.62
2023-02-12T17:29:13.799Z,83.88
2023-02-12T17:31:40.753Z,83.71
2023-02-12T17:34:08.034Z,83.98
2023-02-12T17:36:35.341Z,83.93
2023-02-12T17:39:04.694Z,83.66
2023-02-12T17:41:31.542Z,83.67
2023-02-12T17:43:58.314Z,83.94
2023-02-12T17:46:27.224Z,84.15
2023-02-12T17:48:54.215Z,84.37
2023-02-12T17:51:21.054Z,84.53
2023-02-12T17:53:47.990Z,84.62
2023-02-12T17:56:17.753Z,84.96
2023-02-12T17:58:47.337Z,85.03
2023-02-12T18:01:16.970Z,85.00
2023-02-12T18:03:43.999Z,85.39
2023-02-12T18:06:14.249Z,85.79
2023-02-12T18:08:41.428Z,85.87
2023-02-12T18:11:10.589Z,85.98
2023-02-12T18:13:38.105Z,86.31
2023-02-12T18:16:09.133Z,86.43
2023-02-12T18:18:36.784Z,86.18
2023-02-12T18:21:08.796Z,86.49
2023-02-12T18:23:35.675Z,86.31
2023-02-12T18:26:06.221Z,86.54
2023-02-12T18:28:33.396Z,86.43
2023-02-12T18:31:00.894Z,86.79
2023-02-12T18:33:28.406Z,86.80
2023-02-12T18:36:04.432Z,86.71
2023-02-12T18:38:31.186Z,86.58
2023-02-12T18:40:59.861Z,86.57
2023-02-12T18:43:27.557Z,86.88
2023-02-12T18:45:55.357Z,86.69
2023-02-12T18:48:22.278Z,87.05
2023-02-12T18:50:51.857Z,86.83
2023-02-12T18:53:19.283Z,86.85
2023-02-12T18:55:46.589Z,87.03
2023-02-12T18:58:13.283Z,86.95
2023-02-12T19:00:40.184Z,87.07
2023-02-12T19:03:06.963Z,86.84
2023-02-12T19:05:33.812Z,87.35
2023-02-12T19:08:00.599Z,87.29
2023-02-12T19:10:27.690Z,87.20
2023-02-12T19:12:55.544Z,87.14
2023-02-12T19:15:22.981Z,87.34
2023-02-12T19:17:49.812Z,87.33
2023-02-12T19:20:17.018Z,87.38
2023-02-12T19:22:45.284Z,87.74
2023-02-12T19:25:13.165Z,87.70
2023-02-12T19:27:39.924Z,87.78
2023-02-12T19:30:08.049Z,87.95
2023-02-12T19:32:36.839Z,87.77
2023-02-12T19:35:04.226Z,87.95
2023-02-12T19:37:32.070Z,88.18
2023-02-12T19:39:58.799Z,88.16
2023-02-12T19:42:25.863Z,88.07
2023-02-12T19:44:52.535Z,88.22
2023-02-12T19:47:19.279Z,88.53
2023-02-12T19:49:46.302Z,88.44
2023-02-12T19:52:13.451Z,88.28
2023-02-12T19:54:40.145Z,88.52
2023-02-12T19:57:09.365Z,88.45
2023-02-12T19:59:36.718Z,88.85
2023-02-12T20:02:04.158Z,88.74
2023-02-12T20:04:31.311Z,89.13
2023-02-12T20:06:59.084Z,89.20
2023-02-12T20:09:26.029Z,89.39
2023-02-12T20:11:53.460Z,89.22
2023-02-12T20:14:23.061Z,89.31
2023-02-12T20:16:51.747Z,89.73
2023-02-12T20:19:22.418Z,89.48
2023-02-12T20:21:54.381Z,89.65
2023-02-12T20:24:26.952Z,89.57
2023-02-12T20:26:54.184Z,90.03
2023-02-12T20:29:21.394Z,89.67
2023-02-12T20:31:48.447Z,89.92
2023-02-12T20:34:16.853Z,90.27
2023-02-12T20:36:48.017Z,90.33
2023-02-12T20:39:17.851Z,90.49
2023-02-12T20:41:44.538Z,90.56
2023-02-12T20:44:16.115Z,90.51
2023-02-12T20:46:54.515Z,90.35
2023-02-12T20:49:25.300Z,90.69
2023-02-12T20:51:52.758Z,90.79
2023-02-12T20:54:19.616Z,90.92
2023-02-12T20:56:46.395Z,90.82
2023-02-12T20:59:13.219Z,91.10
2023-02-12T21:01:41.660Z,91.07
2023-02-12T21:04:13.947Z,90.99
2023-02-12T21:06:41.752Z,91.51
2023-02-12T21:09:12.118Z,91.36
2023-02-12T21:11:40.126Z,91.37
2023-02-12T21:14:24.140Z,91.50
2023-02-12T21:16:52.392Z,91.56
2023-02-12T21:19:19.105Z,91.72
2023-02-12T21:21:46.239Z,91.47
2023-02-12T21:24:16.020Z,91.51
2023-02-12T21:26:42.837Z,91.99
2023-02-12T21:29:12.281Z,91.87
2023-02-12T21:31:41.438Z,91.77
2023-02-12T21:34:09.728Z,91.94
2023-02-12T21:36:38.449Z,92.18
2023-02-12T21:39:07.328Z,92.16
2023-02-12T21:41:36.127Z,92.10
2023-02-12T21:44:08.298Z,92.31
2023-02-12T21:46:35.888Z,92.51
2023-02-12T21:49:03.732Z,92.40
2023-02-12T21:51:39.592Z,92.28
2023-02-12T21:54:08.726Z,92.43
2023-02-12T21:56:39.828Z,92.47
2023-02-12T21:59:09.092Z,92.48
2023-02-12T22:01:39.740Z,92.65
2023-02-12T22:04:07.298Z,92.59
2023-02-12T22:06:40.714Z,93.01
2023-02-12T22:09:09.266Z,92.88
2023-02-12T22:11:37.425Z,92.82
2023-02-12T22:14:04.968Z,92.83
2023-02-12T22:16:31.928Z,93.04
2023-02-12T22:19:00.595Z,92.96
2023-02-12T22:21:30.761Z,92.90
2023-02-12T22:23:57.780Z,92.95
2023-02-12T22:26:26.684Z,92.97
2023-02-12T22:28:56.682Z,93.10
2023-02-12T22:31:26.134Z,93.12
2023-02-12T22:33:55.324Z,93.36
2023-02-12T22:36:22.173Z,92.96
2023-02-12T22:38:49.331Z,93.25
2023-02-12T22:41:16.393Z,93.38
2023-02-12T22:43:43.194Z,93.36
2023-02-12T22:46:11.952Z,93.15
2023-02-12T22:48:38.965Z,93.60
2023-02-12T22:51:11.276Z,93.39
2023-02-12T22:53:38.097Z,93.28
2023-02-12T22:56:06.132Z,93.59
2023-02-12T22:58:34.085Z,93.63
2023-02-12T23:01:15.267Z,93.95
2023-02-12T23:03:42.462Z,93.71
2023-02-12T23:06:13.213Z,93.83
2023-02-12T23:08:40.501Z,93.91
2023-02-12T23:11:08.569Z,94.07
2023-02-12T23:13:36.181Z,93.88
2023-02-12T23:16:03.576Z,93.85
2023-02-12T23:18:31.188Z,94.17
2023-02-12T23:20:58.479Z,94.02
2023-02-12T23:23:25.505Z,94.28
2023-02-12T23:25:55.274Z,93.79
2023-02-12T23:28:22.976Z,93.97
2023-02-12T23:30:51.150Z,94.28
2023-02-12T23:33:19.206Z,94.03
2023-02-12T23:35:46.441Z,94.17
2023-02-12T23:38:13.424Z,93.89
2023-02-12T23:40:40.538Z,94.06
2023-02-12T23:43:07.427Z,94.20
2023-02-12T23:45:34.380Z,93.94
2023-02-12T23:48:01.786Z,94.20
2023-02-12T23:50:30.974Z,93.95
2023-02-12T23:52:58.741Z,93.95
2023-02-12T23:55:25.396Z,94.17
2023-02-12T23:57:52.104Z,93.88
